Time;durP1;ratioP1;P1;durP2;ratioP2;P2;SDS_P1;SDS_P2;PMS_P1;PMS_P2;Temp;Humidity;BMP_temperature;BMP_pressure;BME280_temperature;BME280_humidity;BME280_pressure;Samples;Min_cycle;Max_cycle;Signal;HPM_P1;HPM_P2
2021/08/08 00:00:39;;;;;;;2.03;0.55;;;24.00;59.80;;;;;;5072718;28;20098;-61
2021/08/08 00:03:05;;;;;;;1.95;0.65;;;24.00;59.80;;;;;;5072064;28;20032;-62
2021/08/08 00:05:30;;;;;;;0.45;0.45;;;24.00;59.80;;;;;;5072166;28;20097;-60
2021/08/08 00:07:56;;;;;;;0.55;0.40;;;24.00;59.80;;;;;;5071963;28;20593;-61
2021/08/08 00:10:22;;;;;;;1.08;0.80;;;24.00;59.70;;;;;;5057401;28;20025;-63
2021/08/08 00:12:48;;;;;;;1.23;0.70;;;24.00;59.70;;;;;;5051845;28;20032;-64
2021/08/08 00:15:13;;;;;;;1.55;0.65;;;24.00;59.70;;;;;;5052814;28;20029;-65
2021/08/08 00:17:39;;;;;;;0.88;0.50;;;24.00;59.50;;;;;;5051690;28;20025;-63
2021/08/08 00:20:07;;;;;;;0.50;0.40;;;24.00;59.70;;;;;;5052944;28;20044;-64
2021/08/08 00:22:33;;;;;;;1.88;0.68;;;24.00;59.60;;;;;;5052678;28;20057;-63
2021/08/08 00:25:01;;;;;;;1.08;0.52;;;24.00;59.50;;;;;;5051549;28;20254;-63
2021/08/08 00:27:27;;;;;;;0.88;0.75;;;24.00;59.60;;;;;;5051528;28;20151;-64
2021/08/08 00:29:52;;;;;;;1.38;0.52;;;24.00;59.40;;;;;;5051505;28;20100;-63
2021/08/08 00:32:19;;;;;;;1.23;0.60;;;24.00;59.30;;;;;;5052162;28;20041;-63
2021/08/08 00:34:44;;;;;;;1.95;0.60;;;24.00;59.50;;;;;;5054889;28;20021;-63
2021/08/08 00:37:10;;;;;;;2.65;0.60;;;24.00;59.50;;;;;;5072013;28;20023;-63
2021/08/08 00:39:36;;;;;;;1.75;0.70;;;24.00;59.30;;;;;;5072393;28;20033;-64
2021/08/08 00:42:02;;;;;;;0.73;0.57;;;24.00;59.30;;;;;;5071035;28;20111;-63
2021/08/08 00:44:28;;;;;;;1.88;0.70;;;24.00;59.30;;;;;;5072640;28;20103;-63
2021/08/08 00:46:53;;;;;;;0.60;0.50;;;24.00;59.20;;;;;;5071558;28;20120;-63
2021/08/08 00:49:19;;;;;;;1.13;0.60;;;24.00;59.40;;;;;;5072220;28;20031;-63
2021/08/08 00:51:45;;;;;;;3.47;0.88;;;24.00;59.40;;;;;;5070825;28;20040;-63
2021/08/08 00:54:11;;;;;;;0.52;0.45;;;24.00;59.30;;;;;;5071912;28;20033;-63
2021/08/08 00:56:38;;;;;;;1.83;0.65;;;24.00;59.20;;;;;;5070837;28;20031;-67
2021/08/08 00:59:04;;;;;;;0.82;0.60;;;24.00;59.10;;;;;;5072180;28;20029;-64
2021/08/08 01:01:36;;;;;;;1.33;0.50;;;24.00;59.40;;;;;;5072495;28;20053;-63
2021/08/08 01:04:03;;;;;;;0.95;0.57;;;24.00;59.20;;;;;;5072578;28;20029;-63
2021/08/08 01:06:43;;;;;;;1.25;0.82;;;24.00;59.20;;;;;;5070999;28;20021;-63
2021/08/08 01:09:12;;;;;;;0.43;0.40;;;24.00;59.30;;;;;;5066962;28;20021;-63
2021/08/08 01:11:39;;;;;;;1.75;0.60;;;23.90;59.10;;;;;;5052065;28;20091;-66
2021/08/08 01:14:07;;;;;;;0.93;0.50;;;23.90;59.10;;;;;;5052406;28;20036;-64
2021/08/08 01:16:34;;;;;;;0.98;0.50;;;23.90;59.00;;;;;;5058206;28;20020;-63
2021/08/08 01:19:01;;;;;;;1.00;0.60;;;23.90;59.10;;;;;;5057601;28;20482;-63
2021/08/08 01:21:30;;;;;;;0.55;0.50;;;23.90;59.00;;;;;;5058073;28;20033;-63
2021/08/08 01:23:57;;;;;;;0.60;0.40;;;24.00;59.10;;;;;;5057774;28;20037;-63
2021/08/08 01:26:25;;;;;;;2.45;0.82;;;23.90;58.90;;;;;;5058431;28;20048;-63
2021/08/08 01:28:53;;;;;;;0.70;0.35;;;23.90;58.80;;;;;;5057295;28;20025;-63
2021/08/08 01:31:20;;;;;;;0.40;0.40;;;23.90;58.90;;;;;;5057870;28;20052;-63
2021/08/08 01:33:45;;;;;;;0.88;0.43;;;23.90;58.80;;;;;;5057441;28;20037;-63
2021/08/08 01:36:11;;;;;;;1.17;0.50;;;23.90;58.80;;;;;;5073705;28;20084;-63
2021/08/08 01:38:42;;;;;;;0.90;0.60;;;23.90;58.70;;;;;;5077716;28;20496;-62
2021/08/08 01:41:10;;;;;;;1.00;0.60;;;24.00;58.80;;;;;;5078204;28;20115;-64
2021/08/08 01:43:40;;;;;;;0.70;0.60;;;23.90;58.50;;;;;;5077593;28;20481;-62
2021/08/08 01:46:08;;;;;;;1.13;0.40;;;24.00;58.70;;;;;;5078722;28;20086;-63
2021/08/08 01:48:39;;;;;;;0.95;0.50;;;24.00;58.70;;;;;;5078843;28;20373;-62
2021/08/08 01:51:06;;;;;;;1.00;0.57;;;23.90;58.60;;;;;;5077797;28;20020;-63
2021/08/08 01:53:32;;;;;;;4.60;0.75;;;23.90;58.50;;;;;;5077732;28;20029;-63
2021/08/08 01:55:58;;;;;;;0.75;0.50;;;23.90;58.50;;;;;;5077863;28;20051;-63
2021/08/08 01:58:27;;;;;;;1.52;0.70;;;23.90;58.40;;;;;;5078265;28;20090;-63
2021/08/08 02:00:54;;;;;;;2.50;0.70;;;23.90;58.40;;;;;;5077104;28;20547;-64
2021/08/08 02:03:19;;;;;;;1.45;0.65;;;23.90;58.30;;;;;;5077962;28;20373;-64
2021/08/08 02:05:45;;;;;;;0.60;0.50;;;23.90;58.40;;;;;;5077541;28;20036;-63
2021/08/08 02:08:11;;;;;;;1.20;0.47;;;23.90;58.30;;;;;;5077890;28;20025;-63
2021/08/08 02:10:37;;;;;;;0.75;0.50;;;23.90;58.20;;;;;;5060523;28;20033;-63
2021/08/08 02:13:03;;;;;;;0.90;0.50;;;23.90;58.30;;;;;;5057324;28;20045;-63
2021/08/08 02:15:28;;;;;;;0.60;0.50;;;23.90;58.20;;;;;;5057583;28;20025;-63
2021/08/08 02:17:54;;;;;;;1.77;0.40;;;23.90;58.30;;;;;;5057790;28;20523;-63
2021/08/08 02:20:20;;;;;;;0.85;0.43;;;23.90;58.00;;;;;;5057981;28;20033;-62
2021/08/08 02:22:46;;;;;;;0.93;0.57;;;23.90;58.20;;;;;;5056485;28;20119;-63
2021/08/08 02:25:13;;;;;;;1.83;0.95;;;23.90;58.20;;;;;;5057800;28;20036;-63
2021/08/08 02:27:40;;;;;;;2.30;0.40;;;23.90;58.10;;;;;;5053967;28;20494;-63
2021/08/08 02:30:08;;;;;;;0.80;0.60;;;23.90;58.10;;;;;;5054915;28;20122;-63
2021/08/08 02:32:34;;;;;;;1.05;0.43;;;23.90;58.20;;;;;;5053306;28;20086;-63
2021/08/08 02:35:00;;;;;;;0.70;0.50;;;23.90;58.20;;;;;;5058033;28;20048;-63
2021/08/08 02:37:25;;;;;;;1.55;0.40;;;23.90;58.30;;;;;;5074253;28;20121;-63
2021/08/08 02:39:51;;;;;;;1.35;0.30;;;23.90;58.00;;;;;;5073599;28;20466;-63
2021/08/08 02:42:16;;;;;;;0.90;0.52;;;23.90;58.00;;;;;;5073686;28;20037;-63
2021/08/08 02:44:42;;;;;;;1.17;0.50;;;23.90;58.00;;;;;;5073618;28;20366;-68
2021/08/08 02:47:08;;;;;;;1.02;0.47;;;23.90;58.10;;;;;;5073727;28;20385;-63
2021/08/08 02:49:33;;;;;;;1.27;0.50;;;23.90;58.00;;;;;;5073922;28;20032;-63
2021/08/08 02:51:59;;;;;;;1.02;0.57;;;23.90;58.10;;;;;;5073005;28;20144;-63
2021/08/08 02:54:24;;;;;;;1.45;0.40;;;23.90;58.00;;;;;;5073525;28;20076;-63
2021/08/08 02:56:50;;;;;;;1.48;0.57;;;23.90;58.00;;;;;;5072698;28;20067;-63
2021/08/08 02:59:16;;;;;;;0.77;0.45;;;23.90;58.00;;;;;;5073693;28;20071;-63
2021/08/08 03:01:41;;;;;;;1.45;0.45;;;23.90;58.20;;;;;;5073137;28;20037;-67
2021/08/08 03:04:07;;;;;;;0.47;0.40;;;23.90;58.00;;;;;;5073608;28;20028;-63
2021/08/08 03:06:32;;;;;;;0.90;0.55;;;23.90;57.90;;;;;;5073764;28;20075;-63
2021/08/08 03:08:58;;;;;;;0.38;0.38;;;23.90;57.90;;;;;;5070777;28;20021;-63
2021/08/08 03:11:24;;;;;;;2.08;0.60;;;23.90;57.80;;;;;;5053887;28;20036;-63
2021/08/08 03:13:49;;;;;;;0.82;0.40;;;23.90;57.90;;;;;;5052612;28;20033;-63
2021/08/08 03:16:15;;;;;;;1.20;0.50;;;23.90;57.80;;;;;;5053297;28;20075;-63
2021/08/08 03:18:40;;;;;;;1.55;0.50;;;23.90;58.00;;;;;;5054250;28;20074;-66
2021/08/08 03:21:06;;;;;;;1.35;0.40;;;23.90;57.90;;;;;;5053412;28;20048;-63
2021/08/08 03:23:33;;;;;;;0.60;0.50;;;23.90;58.00;;;;;;5053326;28;20028;-63
2021/08/08 03:25:59;;;;;;;0.30;0.20;;;23.90;57.90;;;;;;5052637;28;20107;-63
2021/08/08 03:28:25;;;;;;;0.40;0.40;;;23.90;58.00;;;;;;5053303;28;20174;-63
2021/08/08 03:30:51;;;;;;;1.48;0.40;;;23.90;58.00;;;;;;5052385;28;20048;-63
2021/08/08 03:33:17;;;;;;;2.22;0.50;;;23.90;58.00;;;;;;5053257;28;20029;-63
2021/08/08 03:35:42;;;;;;;0.55;0.43;;;23.90;58.00;;;;;;5064142;28;20032;-67
2021/08/08 03:38:08;;;;;;;2.00;0.40;;;23.90;58.00;;;;;;5071199;28;20028;-62
2021/08/08 03:40:34;;;;;;;0.60;0.50;;;23.90;58.00;;;;;;5073107;28;20583;-61
2021/08/08 03:43:00;;;;;;;1.65;0.40;;;23.90;58.00;;;;;;5072347;28;20485;-62
2021/08/08 03:45:26;;;;;;;0.38;0.32;;;23.90;58.10;;;;;;5073056;28;20050;-64
2021/08/08 03:47:52;;;;;;;0.60;0.50;;;23.90;57.90;;;;;;5072178;28;20078;-64
2021/08/08 03:50:17;;;;;;;1.15;0.50;;;23.90;58.00;;;;;;5072571;28;20035;-64
2021/08/08 03:52:43;;;;;;;1.50;0.93;;;23.90;58.00;;;;;;5072733;28;20036;-70
2021/08/08 03:55:09;;;;;;;0.70;0.50;;;23.90;58.00;;;;;;5071982;28;20024;-64
2021/08/08 03:57:34;;;;;;;1.35;0.50;;;23.90;58.00;;;;;;5072061;28;20462;-63
2021/08/08 04:00:00;;;;;;;1.90;0.60;;;23.90;57.80;;;;;;5071654;28;20040;-63
2021/08/08 04:02:26;;;;;;;0.75;0.40;;;23.90;57.80;;;;;;5072490;28;20052;-63
2021/08/08 04:04:52;;;;;;;1.20;0.55;;;23.90;57.80;;;;;;5071797;28;20105;-63
2021/08/08 04:07:17;;;;;;;0.63;0.40;;;23.90;57.90;;;;;;5072339;28;20059;-64
2021/08/08 04:09:43;;;;;;;2.00;0.40;;;23.90;57.70;;;;;;5061602;28;20028;-68
2021/08/08 04:12:09;;;;;;;0.65;0.47;;;23.90;57.90;;;;;;5051081;28;20040;-63
2021/08/08 04:14:36;;;;;;;0.90;0.55;;;23.90;57.80;;;;;;5050602;28;20076;-64
2021/08/08 04:17:03;;;;;;;1.75;0.50;;;23.90;57.80;;;;;;5050364;28;20032;-64
2021/08/08 04:19:28;;;;;;;0.60;0.45;;;23.90;57.80;;;;;;5052215;28;20351;-63
2021/08/08 04:21:54;;;;;;;0.93;0.43;;;23.90;57.60;;;;;;5051972;28;20032;-63
2021/08/08 04:24:19;;;;;;;1.52;0.50;;;23.90;57.70;;;;;;5052770;28;20025;-64
2021/08/08 04:26:45;;;;;;;0.82;0.40;;;23.90;57.80;;;;;;5051866;28;20040;-68
2021/08/08 04:29:10;;;;;;;1.30;0.45;;;23.90;57.70;;;;;;5053177;28;20380;-64
2021/08/08 04:31:36;;;;;;;1.75;0.43;;;23.90;57.70;;;;;;5052436;28;20065;-63
2021/08/08 04:34:02;;;;;;;0.40;0.30;;;23.90;57.60;;;;;;5051540;28;20104;-63
2021/08/08 04:36:27;;;;;;;2.25;0.77;;;23.90;57.70;;;;;;5052028;28;20096;-63
2021/08/08 04:38:53;;;;;;;0.52;0.50;;;23.90;57.80;;;;;;5052398;28;20028;-63
2021/08/08 04:41:19;;;;;;;0.90;0.40;;;23.80;57.70;;;;;;5052369;28;20037;-63
2021/08/08 04:43:44;;;;;;;1.35;0.50;;;23.90;57.70;;;;;;5051604;28;20032;-68
2021/08/08 04:46:10;;;;;;;1.98;0.60;;;23.90;57.70;;;;;;5051145;28;20032;-63
2021/08/08 04:48:35;;;;;;;0.70;0.43;;;23.80;58.00;;;;;;5050860;28;20025;-63
2021/08/08 04:51:02;;;;;;;0.82;0.50;;;23.80;58.30;;;;;;5050759;28;20033;-63
2021/08/08 04:53:27;;;;;;;0.80;0.60;;;23.90;58.30;;;;;;5050813;28;20466;-63
2021/08/08 04:55:54;;;;;;;0.60;0.40;;;23.90;58.40;;;;;;5050004;28;20075;-63
2021/08/08 04:58:19;;;;;;;0.85;0.45;;;23.90;58.40;;;;;;5050629;28;20041;-64
2021/08/08 05:00:45;;;;;;;0.60;0.50;;;23.90;58.50;;;;;;5049882;28;20059;-68
2021/08/08 05:03:11;;;;;;;2.00;0.57;;;23.90;58.50;;;;;;5050888;28;20049;-63
2021/08/08 05:05:36;;;;;;;1.75;0.60;;;23.90;58.50;;;;;;5050911;28;20071;-63
2021/08/08 05:08:02;;;;;;;0.70;0.40;;;23.80;58.20;;;;;;5050062;28;20463;-64
2021/08/08 05:10:28;;;;;;;0.80;0.38;;;23.90;57.80;;;;;;5050398;28;20104;-64
2021/08/08 05:12:55;;;;;;;2.60;0.70;;;23.90;57.60;;;;;;5050239;28;20032;-64
2021/08/08 05:15:22;;;;;;;1.48;0.40;;;23.90;57.50;;;;;;5050379;28;20025;-63
2021/08/08 05:17:48;;;;;;;0.80;0.50;;;23.80;57.40;;;;;;5049179;28;20017;-63
2021/08/08 05:20:14;;;;;;;1.48;0.45;;;23.80;57.30;;;;;;5049869;28;20032;-63
2021/08/08 05:22:41;;;;;;;0.90;0.47;;;23.80;57.50;;;;;;5049881;28;20033;-63
2021/08/08 05:25:07;;;;;;;1.05;0.43;;;23.80;57.50;;;;;;5049966;28;20048;-64
2021/08/08 05:27:35;;;;;;;0.73;0.40;;;23.80;57.20;;;;;;5049339;28;20063;-65
2021/08/08 05:30:02;;;;;;;1.27;0.70;;;23.80;57.70;;;;;;5049573;28;20169;-64
2021/08/08 05:32:28;;;;;;;2.20;1.02;;;23.90;58.20;;;;;;5050233;28;20398;-63
2021/08/08 05:34:54;;;;;;;1.83;0.60;;;23.50;55.60;;;;;;5047836;28;20028;-67
2021/08/08 05:37:19;;;;;;;1.30;0.35;;;22.90;56.00;;;;;;5041854;28;20025;-63
2021/08/08 05:39:45;;;;;;;3.42;0.70;;;22.40;57.00;;;;;;5053820;28;20036;-67
2021/08/08 05:42:11;;;;;;;1.85;0.30;;;22.30;57.40;;;;;;5050610;28;20036;-63
2021/08/08 05:44:39;;;;;;;2.03;0.60;;;22.10;57.90;;;;;;5051038;28;20478;-64
2021/08/08 05:47:08;;;;;;;7.53;1.52;;;21.70;58.50;;;;;;5050957;28;20191;-63
2021/08/08 05:49:34;;;;;;;1.50;0.50;;;21.60;58.80;;;;;;5051163;28;20029;-63
2021/08/08 05:52:06;;;;;;;2.78;0.60;;;21.60;58.90;;;;;;5050484;28;20036;-64
2021/08/08 05:54:32;;;;;;;2.83;1.02;;;21.60;59.30;;;;;;5049825;28;20045;-64
2021/08/08 05:56:57;;;;;;;0.88;0.40;;;21.50;58.80;;;;;;5049262;28;20029;-63
2021/08/08 05:59:23;;;;;;;1.95;0.50;;;21.40;59.40;;;;;;5049446;28;20043;-64
2021/08/08 06:01:49;;;;;;;2.17;0.65;;;21.30;59.60;;;;;;5050816;28;20040;-65
2021/08/08 06:04:15;;;;;;;0.95;0.63;;;21.30;59.70;;;;;;5053471;28;20531;-65
2021/08/08 06:06:41;;;;;;;0.95;0.60;;;21.40;59.70;;;;;;5053231;28;20037;-65
2021/08/08 06:09:06;;;;;;;1.67;0.70;;;21.40;59.60;;;;;;5052601;28;20021;-64
2021/08/08 06:11:32;;;;;;;2.05;0.82;;;21.30;59.80;;;;;;5053427;28;20033;-64
2021/08/08 06:13:58;;;;;;;2.85;0.82;;;21.30;59.70;;;;;;5052523;28;20053;-63
2021/08/08 06:16:23;;;;;;;1.77;0.70;;;21.40;59.40;;;;;;5053085;28;20108;-64
2021/08/08 06:18:49;;;;;;;1.08;0.40;;;21.30;59.50;;;;;;5052574;28;20029;-67
2021/08/08 06:21:15;;;;;;;1.42;0.63;;;21.30;60.00;;;;;;5053430;28;20108;-64
2021/08/08 06:23:40;;;;;;;1.13;0.55;;;21.30;60.00;;;;;;5053275;28;20032;-65
2021/08/08 06:26:06;;;;;;;1.63;0.50;;;21.30;59.70;;;;;;5052732;28;20474;-64
2021/08/08 06:28:32;;;;;;;0.60;0.50;;;21.30;59.90;;;;;;5052924;28;20029;-64
2021/08/08 06:30:57;;;;;;;1.67;0.50;;;21.20;60.00;;;;;;5052438;28;20033;-64
2021/08/08 06:33:23;;;;;;;2.30;0.50;;;21.30;59.60;;;;;;5052301;28;20096;-63
2021/08/08 06:35:51;;;;;;;0.90;0.43;;;21.30;59.50;;;;;;5051610;28;20515;-69
2021/08/08 06:38:17;;;;;;;3.92;0.70;;;21.30;59.70;;;;;;5052742;28;20437;-64
2021/08/08 06:40:42;;;;;;;4.93;1.55;;;21.20;60.00;;;;;;5052871;28;20029;-64
2021/08/08 06:43:08;;;;;;;1.33;0.60;;;21.20;59.60;;;;;;5052342;28;20021;-64
2021/08/08 06:45:34;;;;;;;2.67;0.50;;;21.20;59.70;;;;;;5052773;28;20078;-63
2021/08/08 06:48:00;;;;;;;0.82;0.55;;;21.30;59.80;;;;;;5052010;28;20033;-64
2021/08/08 06:50:27;;;;;;;2.65;0.50;;;21.30;60.00;;;;;;5050680;28;20078;-63
2021/08/08 06:52:54;;;;;;;3.00;0.68;;;21.20;59.90;;;;;;5051758;28;20081;-61
2021/08/08 06:55:19;;;;;;;1.92;1.27;;;21.30;59.80;;;;;;5052960;28;20033;-59
2021/08/08 06:57:45;;;;;;;1.25;0.50;;;21.30;59.90;;;;;;5053095;28;20386;-61
2021/08/08 07:00:11;;;;;;;1.35;0.55;;;21.30;59.90;;;;;;5052861;28;20491;-59
2021/08/08 07:02:38;;;;;;;1.98;0.60;;;21.40;59.50;;;;;;5053821;28;20045;-63
2021/08/08 07:05:05;;;;;;;1.88;0.50;;;21.90;58.50;;;;;;5052962;28;20086;-61
2021/08/08 07:07:31;;;;;;;1.17;0.50;;;22.30;57.70;;;;;;5058221;28;20351;-61
2021/08/08 07:09:56;;;;;;;3.67;0.77;;;22.60;57.20;;;;;;5052611;28;20029;-62
2021/08/08 07:12:22;;;;;;;1.08;0.50;;;22.70;56.90;;;;;;5050428;28;20115;-59
2021/08/08 07:14:48;;;;;;;3.42;0.70;;;22.50;56.40;;;;;;5056998;28;20132;-62
2021/08/08 07:17:14;;;;;;;4.03;0.98;;;21.90;58.40;;;;;;5052424;28;20017;-59
2021/08/08 07:19:41;;;;;;;1.98;0.50;;;21.70;59.30;;;;;;5049614;28;20098;-57
2021/08/08 07:22:07;;;;;;;1.17;0.57;;;21.40;59.70;;;;;;5051181;28;20670;-60
2021/08/08 07:24:33;;;;;;;4.55;0.85;;;21.70;59.60;;;;;;5052169;28;20043;-62
2021/08/08 07:26:58;;;;;;;3.95;0.63;;;21.80;59.20;;;;;;5050973;28;20029;-61
2021/08/08 07:29:24;;;;;;;1.88;0.60;;;22.00;58.70;;;;;;5051507;28;20040;-60
2021/08/08 07:31:50;;;;;;;2.33;0.68;;;22.40;58.20;;;;;;5051380;28;20496;-62
2021/08/08 07:34:15;;;;;;;9.63;1.45;;;22.60;57.70;;;;;;5051918;28;20116;-62
2021/08/08 07:36:41;;;;;;;3.45;0.82;;;22.80;57.50;;;;;;5051571;28;20029;-62
2021/08/08 07:39:07;;;;;;;1.73;0.50;;;22.80;56.60;;;;;;5050561;28;20103;-64
2021/08/08 07:41:32;;;;;;;2.63;0.93;;;22.90;56.40;;;;;;5051636;28;20036;-63
2021/08/08 07:43:58;;;;;;;5.75;0.90;;;22.90;56.00;;;;;;5050932;28;20028;-63
2021/08/08 07:46:24;;;;;;;4.30;0.77;;;22.90;55.90;;;;;;5052776;28;20025;-63
2021/08/08 07:48:50;;;;;;;2.97;0.85;;;22.90;55.90;;;;;;5051632;28;20063;-66
2021/08/08 07:51:16;;;;;;;2.10;0.80;;;22.90;55.70;;;;;;5051341;28;20037;-63
2021/08/08 07:53:42;;;;;;;4.25;0.57;;;22.90;55.80;;;;;;5050835;28;20021;-63
2021/08/08 07:56:08;;;;;;;3.50;1.08;;;22.90;55.90;;;;;;5051141;28;20048;-62
2021/08/08 07:58:33;;;;;;;2.65;0.65;;;22.90;55.60;;;;;;5051722;28;20032;-63
2021/08/08 08:00:59;;;;;;;4.88;0.70;;;22.90;56.10;;;;;;5050576;28;20061;-65
2021/08/08 08:03:25;;;;;;;2.58;0.77;;;23.00;55.50;;;;;;5051163;28;20037;-61
2021/08/08 08:05:50;;;;;;;3.25;0.80;;;22.90;55.30;;;;;;5050695;28;20587;-63
2021/08/08 08:08:16;;;;;;;3.55;0.63;;;22.90;54.70;;;;;;5049638;28;20772;-62
2021/08/08 08:10:42;;;;;;;1.65;0.60;;;22.90;54.50;;;;;;5051943;28;20032;-63
2021/08/08 08:13:08;;;;;;;1.75;0.60;;;22.80;54.20;;;;;;5050466;28;20110;-63
2021/08/08 08:15:33;;;;;;;3.40;0.80;;;22.90;54.50;;;;;;5048494;28;20581;-63
2021/08/08 08:17:59;;;;;;;1.90;0.50;;;22.90;54.40;;;;;;5050785;28;20020;-63
2021/08/08 08:20:24;;;;;;;3.67;0.98;;;22.90;54.40;;;;;;5051481;28;20031;-63
2021/08/08 08:22:51;;;;;;;1.30;0.70;;;22.90;54.40;;;;;;5050185;28;20025;-63
2021/08/08 08:25:19;;;;;;;3.17;0.77;;;23.00;54.30;;;;;;5050386;28;20731;-64
2021/08/08 08:27:45;;;;;;;1.35;0.60;;;22.90;54.20;;;;;;5051539;28;20029;-63
2021/08/08 08:30:11;;;;;;;2.42;0.60;;;22.90;54.10;;;;;;5049656;28;20082;-62
2021/08/08 08:32:37;;;;;;;3.85;0.70;;;22.90;54.40;;;;;;5050531;28;20560;-63
2021/08/08 08:35:05;;;;;;;6.15;0.90;;;23.00;54.40;;;;;;5050506;28;20028;-61
2021/08/08 08:37:32;;;;;;;4.35;1.35;;;23.00;54.60;;;;;;5050890;28;20363;-62
2021/08/08 08:40:00;;;;;;;3.55;1.02;;;23.10;55.50;;;;;;5051881;28;20107;-63
2021/08/08 08:42:28;;;;;;;3.40;1.25;;;23.10;55.30;;;;;;5050863;28;20397;-62
2021/08/08 08:44:55;;;;;;;2.70;0.77;;;23.10;54.90;;;;;;5046572;28;20028;-62
2021/08/08 08:47:22;;;;;;;1.25;0.60;;;23.20;54.80;;;;;;5051080;28;20025;-63
2021/08/08 08:49:59;;;;;;;3.40;1.00;;;23.20;54.40;;;;;;5049918;28;20067;-66
2021/08/08 08:52:27;;;;;;;1.45;0.50;;;23.10;54.40;;;;;;5049589;28;20106;-61
2021/08/08 08:54:54;;;;;;;1.05;0.60;;;23.20;54.60;;;;;;5049691;28;20017;-63
2021/08/08 08:57:21;;;;;;;2.10;0.47;;;23.20;54.30;;;;;;5050572;28;20035;-62
2021/08/08 08:59:48;;;;;;;1.30;0.43;;;23.30;54.60;;;;;;5050392;28;20084;-65
2021/08/08 09:02:14;;;;;;;2.03;0.60;;;23.30;54.80;;;;;;5050140;28;20036;-62
2021/08/08 09:04:40;;;;;;;1.25;0.60;;;23.30;54.70;;;;;;5050412;28;20059;-61
2021/08/08 09:07:06;;;;;;;0.82;0.60;;;23.30;55.00;;;;;;5049816;28;20355;-61
2021/08/08 09:09:33;;;;;;;1.23;0.60;;;23.40;54.90;;;;;;5051901;28;20021;-63
2021/08/08 09:11:59;;;;;;;2.08;0.68;;;23.40;55.00;;;;;;5049567;28;20488;-61
2021/08/08 09:14:25;;;;;;;1.95;0.70;;;23.30;55.00;;;;;;5050445;28;20112;-62
2021/08/08 09:16:53;;;;;;;1.55;0.80;;;23.30;54.50;;;;;;5049743;28;20021;-66
2021/08/08 09:19:26;;;;;;;1.88;0.63;;;23.30;54.60;;;;;;5048109;28;20060;-62
2021/08/08 09:21:52;;;;;;;1.13;0.50;;;23.30;54.70;;;;;;5049313;28;20035;-63
2021/08/08 09:24:36;;;;;;;1.92;0.75;;;23.30;54.60;;;;;;5050370;28;20033;-62
2021/08/08 09:27:08;;;;;;;2.65;0.75;;;23.30;54.40;;;;;;5047674;28;20029;-63
2021/08/08 09:29:35;;;;;;;2.75;1.10;;;23.30;54.10;;;;;;5048118;28;20432;-63
2021/08/08 09:32:03;;;;;;;1.98;0.80;;;23.30;54.10;;;;;;5050329;28;20490;-66
2021/08/08 09:34:36;;;;;;;2.85;0.80;;;23.30;54.00;;;;;;5050843;28;20367;-66
2021/08/08 09:37:07;;;;;;;1.65;0.52;;;23.30;53.80;;;;;;5054235;28;20025;-67
2021/08/08 09:39:34;;;;;;;1.63;0.60;;;23.30;53.80;;;;;;5065839;28;20497;-67
2021/08/08 09:42:16;;;;;;;4.57;0.60;;;23.30;53.50;;;;;;5074654;28;20058;-67
2021/08/08 09:45:02;;;;;;;3.30;0.70;;;23.40;53.70;;;;;;5075435;28;20042;-67
2021/08/08 09:47:40;;;;;;;1.13;0.32;;;23.30;53.70;;;;;;5075281;28;20478;-70
2021/08/08 09:50:10;;;;;;;2.38;0.80;;;23.30;53.70;;;;;;5074472;28;20032;-67
2021/08/08 09:52:37;;;;;;;3.92;0.70;;;23.30;53.80;;;;;;5074969;28;20039;-68
2021/08/08 09:55:15;;;;;;;0.85;0.60;;;23.40;54.00;;;;;;5074051;28;20028;-67
2021/08/08 09:57:41;;;;;;;0.90;0.60;;;23.40;53.60;;;;;;5073884;28;20104;-67
2021/08/08 10:00:08;;;;;;;6.38;0.70;;;23.40;53.70;;;;;;5073589;28;20494;-67
2021/08/08 10:02:33;;;;;;;1.17;0.40;;;23.30;53.50;;;;;;5075118;28;20024;-68
2021/08/08 10:04:59;;;;;;;2.88;0.77;;;23.40;53.70;;;;;;5074210;28;20029;-67
2021/08/08 10:07:27;;;;;;;1.15;0.45;;;23.40;53.60;;;;;;5074477;28;20539;-67
2021/08/08 10:09:53;;;;;;;1.25;0.60;;;23.40;53.50;;;;;;5063043;28;20086;-67
2021/08/08 10:12:26;;;;;;;2.70;1.33;;;23.40;53.30;;;;;;5054800;28;20029;-67
2021/08/08 10:14:56;;;;;;;2.40;0.70;;;23.40;53.10;;;;;;5054156;28;20032;-67
2021/08/08 10:17:22;;;;;;;3.13;0.70;;;23.40;53.40;;;;;;5054665;28;20021;-67
2021/08/08 10:19:50;;;;;;;3.00;0.70;;;23.40;53.50;;;;;;5053485;28;20025;-68
2021/08/08 10:22:18;;;;;;;1.70;1.25;;;23.40;52.80;;;;;;5054166;28;20041;-68
2021/08/08 10:24:46;;;;;;;2.33;0.73;;;23.40;53.00;;;;;;5054376;28;20108;-68
2021/08/08 10:27:12;;;;;;;1.50;0.50;;;23.40;53.30;;;;;;5054178;28;20033;-68
2021/08/08 10:29:39;;;;;;;1.55;0.80;;;23.40;53.20;;;;;;5054702;28;20475;-68
2021/08/08 10:32:05;;;;;;;1.80;0.60;;;23.40;53.00;;;;;;5053689;28;20041;-67
2021/08/08 10:34:31;;;;;;;1.38;0.60;;;23.40;52.70;;;;;;5053181;28;20052;-68
2021/08/08 10:37:10;;;;;;;0.70;0.50;;;23.40;52.90;;;;;;5053737;28;20453;-67
2021/08/08 10:39:41;;;;;;;2.55;0.70;;;23.40;53.10;;;;;;5065397;28;20107;-68
2021/08/08 10:42:08;;;;;;;2.25;0.75;;;23.40;53.00;;;;;;5073623;28;20028;-68
2021/08/08 10:44:51;;;;;;;1.73;0.70;;;23.40;53.10;;;;;;5073249;28;20033;-67
2021/08/08 10:47:25;;;;;;;2.38;0.60;;;23.40;52.40;;;;;;5068338;28;20051;-61
2021/08/08 10:49:50;;;;;;;6.45;0.73;;;23.40;52.70;;;;;;5074931;28;20021;-65
2021/08/08 10:52:16;;;;;;;1.33;0.80;;;23.50;52.60;;;;;;5074034;28;20039;-61
2021/08/08 10:54:52;;;;;;;4.03;0.70;;;23.50;52.40;;;;;;5073755;28;20381;-59
2021/08/08 10:57:19;;;;;;;1.30;0.52;;;23.50;52.20;;;;;;5073675;28;20038;-61
2021/08/08 10:59:54;;;;;;;2.88;0.70;;;23.50;52.30;;;;;;5073254;28;20553;-61
2021/08/08 11:02:28;;;;;;;2.88;0.73;;;23.50;53.10;;;;;;5073937;28;20029;-63
2021/08/08 11:04:54;;;;;;;3.42;0.90;;;23.40;50.90;;;;;;5073989;28;20044;-62
2021/08/08 11:07:28;;;;;;;2.47;0.70;;;23.30;50.60;;;;;;5074828;28;20032;-62
2021/08/08 11:09:55;;;;;;;5.35;0.70;;;23.20;49.60;;;;;;5062396;28;20041;-63
2021/08/08 11:12:35;;;;;;;2.53;0.77;;;23.30;49.80;;;;;;5054552;28;20063;-62
2021/08/08 11:15:00;;;;;;;1.92;0.63;;;23.20;48.60;;;;;;5053690;28;20032;-63
2021/08/08 11:17:27;;;;;;;1.58;0.65;;;23.20;48.70;;;;;;5065953;28;20036;-63
2021/08/08 11:19:54;;;;;;;1.73;0.88;;;23.30;48.80;;;;;;5073527;28;20412;-67
2021/08/08 11:22:21;;;;;;;1.10;0.60;;;23.30;48.80;;;;;;5073934;28;20036;-62
2021/08/08 11:25:04;;;;;;;3.80;0.60;;;23.20;49.20;;;;;;5073708;28;20024;-63
2021/08/08 11:27:34;;;;;;;2.58;0.70;;;23.30;48.40;;;;;;5073957;28;20029;-62
2021/08/08 11:30:01;;;;;;;2.22;0.93;;;23.30;48.80;;;;;;5073416;28;20377;-63
2021/08/08 11:32:31;;;;;;;4.15;0.80;;;23.30;48.60;;;;;;5074097;28;20039;-62
2021/08/08 11:35:27;;;;;;;2.15;0.60;;;23.40;48.70;;;;;;5073062;28;20024;-62
2021/08/08 11:37:53;;;;;;;2.90;0.95;;;23.30;47.30;;;;;;5073188;28;20064;-62
2021/08/08 11:40:30;;;;;;;1.20;0.63;;;23.20;47.40;;;;;;5071417;28;20064;-61
2021/08/08 11:42:58;;;;;;;2.00;1.00;;;23.20;47.90;;;;;;5071700;28;20040;-61
2021/08/08 11:45:40;;;;;;;1.13;0.60;;;23.30;47.80;;;;;;5073564;28;20434;-61
2021/08/08 11:48:08;;;;;;;2.08;0.90;;;23.30;47.80;;;;;;5072684;28;20021;-61
2021/08/08 11:50:34;;;;;;;3.17;0.88;;;23.20;47.80;;;;;;5073282;28;20020;-63
2021/08/08 11:53:02;;;;;;;2.95;1.13;;;23.10;47.60;;;;;;5072873;28;20029;-60
2021/08/08 11:55:31;;;;;;;4.13;0.70;;;23.10;48.00;;;;;;5073298;28;20024;-59
2021/08/08 11:58:05;;;;;;;1.42;0.60;;;23.20;48.20;;;;;;5072279;28;20485;-60
2021/08/08 12:00:31;;;;;;;1.80;0.70;;;23.40;48.70;;;;;;5073096;28;20063;-60
2021/08/08 12:02:56;;;;;;;2.20;0.80;;;23.50;48.70;;;;;;5072268;28;20466;-62
2021/08/08 12:05:24;;;;;;;3.03;0.60;;;23.50;48.80;;;;;;5073216;28;20025;-62
2021/08/08 12:07:51;;;;;;;1.48;0.93;;;23.50;49.00;;;;;;5072743;28;20055;-62
2021/08/08 12:10:31;;;;;;;1.48;0.75;;;23.50;49.30;;;;;;5058119;28;20121;-62
2021/08/08 12:12:56;;;;;;;2.65;0.57;;;23.50;48.70;;;;;;5052621;28;20029;-62
2021/08/08 12:15:36;;;;;;;1.25;0.60;;;23.40;48.90;;;;;;5053006;28;20029;-62
2021/08/08 12:18:04;;;;;;;1.77;0.98;;;23.50;49.10;;;;;;5068878;28;20115;-59
2021/08/08 12:20:38;;;;;;;2.17;0.68;;;23.50;49.40;;;;;;5065043;28;20032;-60
2021/08/08 12:23:12;;;;;;;2.60;0.52;;;23.50;50.00;;;;;;5052205;28;20100;-59
2021/08/08 12:25:40;;;;;;;2.50;0.80;;;23.50;50.00;;;;;;5052588;28;20025;-60
2021/08/08 12:28:06;;;;;;;2.92;0.85;;;23.60;50.00;;;;;;5052280;28;20113;-59
2021/08/08 12:30:32;;;;;;;1.27;0.65;;;23.60;49.90;;;;;;5052582;28;20067;-61
2021/08/08 12:33:05;;;;;;;1.33;0.60;;;23.60;49.80;;;;;;5052075;28;20052;-62
2021/08/08 12:35:35;;;;;;;2.90;0.80;;;23.60;49.90;;;;;;5052588;28;20020;-59
2021/08/08 12:38:06;;;;;;;1.20;0.70;;;23.60;49.60;;;;;;5052117;28;20037;-60
2021/08/08 12:40:45;;;;;;;1.67;0.60;;;23.60;49.80;;;;;;5052623;28;20045;-61
2021/08/08 12:43:11;;;;;;;3.30;0.85;;;23.60;49.70;;;;;;5051792;28;20378;-59
2021/08/08 12:45:38;;;;;;;1.23;0.70;;;23.70;50.00;;;;;;5052471;28;20104;-63
2021/08/08 12:48:04;;;;;;;2.70;0.75;;;23.60;49.80;;;;;;5068632;28;20104;-63